createdAt,value
2023-05-05T00:00:27.256Z,88918.00
2023-05-05T00:01:27.264Z,88920.00
2023-05-05T00:02:27.460Z,88920.00
2023-05-05T00:03:28.070Z,88918.00
2023-05-05T00:04:27.348Z,88918.00
2023-05-05T00:05:27.340Z,88922.00
2023-05-05T00:06:27.391Z,88918.00
2023-05-05T00:07:27.562Z,88918.00
2023-05-05T00:08:27.559Z,88918.00
2023-05-05T00:09:27.611Z,88918.00
2023-05-05T00:10:28.597Z,88918.00
2023-05-05T00:11:27.755Z,88916.00
2023-05-05T00:12:27.803Z,88918.00
2023-05-05T00:13:27.854Z,88916.00
2023-05-05T00:14:27.919Z,88916.00
2023-05-05T00:15:28.020Z,88916.00
2023-05-05T00:16:28.126Z,88914.00
2023-05-05T00:17:28.155Z,88914.00
2023-05-05T00:18:30.042Z,88916.00
2023-05-05T00:19:28.271Z,88916.00
2023-05-05T00:20:28.385Z,88918.00
2023-05-05T00:21:28.482Z,88914.00
2023-05-05T00:22:28.531Z,88916.00
2023-05-05T00:23:29.571Z,88914.00
2023-05-05T00:24:28.618Z,88918.00
2023-05-05T00:25:28.694Z,88918.00
2023-05-05T00:26:29.494Z,88916.00
2023-05-05T00:27:28.824Z,88916.00
2023-05-05T00:28:28.796Z,88918.00
2023-05-05T00:29:29.539Z,88920.00
2023-05-05T00:30:28.956Z,88920.00
2023-05-05T00:31:29.685Z,88918.00
2023-05-05T00:32:28.942Z,88920.00
2023-05-05T00:33:28.906Z,88918.00
2023-05-05T00:34:28.968Z,88918.00
2023-05-05T00:35:28.923Z,88918.00
2023-05-05T00:36:28.945Z,88920.00
2023-05-05T00:37:28.958Z,88918.00
2023-05-05T00:38:29.042Z,88920.00
2023-05-05T00:39:29.003Z,88916.00
2023-05-05T00:40:29.023Z,88918.00
2023-05-05T00:41:30.146Z,88918.00
2023-05-05T00:42:29.099Z,88916.00
2023-05-05T00:43:29.074Z,88916.00
2023-05-05T00:44:29.109Z,88918.00
2023-05-05T00:45:29.204Z,88918.00
2023-05-05T00:46:29.250Z,88918.00
2023-05-05T00:47:29.347Z,88918.00
2023-05-05T00:48:29.220Z,88918.00
2023-05-05T00:49:29.319Z,88916.00
2023-05-05T00:50:29.356Z,88916.00
2023-05-05T00:51:30.363Z,88912.00
2023-05-05T00:52:29.263Z,88912.00
2023-05-05T00:53:30.086Z,88910.00
2023-05-05T00:54:30.130Z,88912.00
2023-05-05T00:55:30.110Z,88912.00
2023-05-05T00:56:29.479Z,88910.00
2023-05-05T00:57:29.540Z,88912.00
2023-05-05T00:58:30.515Z,88909.00
2023-05-05T00:59:29.674Z,88907.00
2023-05-05T01:00:29.608Z,88907.00
2023-05-05T01:01:30.537Z,88907.00
2023-05-05T01:02:30.119Z,88907.00
2023-05-05T01:03:29.895Z,88905.00
2023-05-05T01:04:36.515Z,88907.00
2023-05-05T01:05:29.855Z,88907.00
2023-05-05T01:06:29.893Z,88903.00
2023-05-05T01:07:29.892Z,88907.00
2023-05-05T01:08:31.636Z,88905.00
2023-05-05T01:09:29.896Z,88905.00
2023-05-05T01:10:29.942Z,88907.00
2023-05-05T01:11:29.915Z,88907.00
2023-05-05T01:12:30.531Z,88901.00
2023-05-05T01:13:31.555Z,88905.00
2023-05-05T01:14:29.995Z,88901.00
2023-05-05T01:15:29.999Z,88901.00
2023-05-05T01:16:30.110Z,88899.00
2023-05-05T01:17:30.085Z,88899.00
2023-05-05T01:18:30.093Z,88903.00
2023-05-05T01:19:30.086Z,88905.00
2023-05-05T01:20:30.126Z,88905.00
2023-05-05T01:21:31.044Z,88905.00
2023-05-05T01:22:30.484Z,88905.00
2023-05-05T01:23:30.232Z,88905.00
2023-05-05T01:24:30.196Z,88903.00
2023-05-05T01:25:30.354Z,88907.00
2023-05-05T01:26:30.439Z,88903.00
2023-05-05T01:27:30.318Z,88903.00
2023-05-05T01:28:30.451Z,88903.00
2023-05-05T01:29:35.126Z,88903.00
2023-05-05T01:30:30.433Z,88905.00
2023-05-05T01:31:30.579Z,88901.00
2023-05-05T01:32:30.916Z,88905.00
2023-05-05T01:33:31.054Z,88903.00
2023-05-05T01:34:30.600Z,88905.00
2023-05-05T01:35:31.605Z,88901.00
2023-05-05T01:36:30.527Z,88903.00
2023-05-05T01:37:30.663Z,88901.00
2023-05-05T01:38:31.567Z,88899.00
2023-05-05T01:39:30.627Z,88901.00
2023-05-05T01:40:31.617Z,88901.00
2023-05-05T01:41:30.684Z,88903.00
2023-05-05T01:42:30.819Z,88903.00
2023-05-05T01:43:30.699Z,88903.00
2023-05-05T01:44:31.578Z,88903.00
2023-05-05T01:45:30.814Z,88905.00
2023-05-05T01:46:30.700Z,88907.00
2023-05-05T01:47:30.809Z,88907.00
2023-05-05T01:48:31.523Z,88907.00
2023-05-05T01:49:32.520Z,88909.00
2023-05-05T01:50:31.501Z,88910.00
2023-05-05T01:51:31.052Z,88909.00
2023-05-05T01:52:31.117Z,88912.00
2023-05-05T01:53:31.341Z,88912.00
2023-05-05T01:54:31.171Z,88912.00
2023-05-05T01:55:31.387Z,88914.00
2023-05-05T01:56:31.174Z,88914.00
2023-05-05T01:57:31.352Z,88918.00
2023-05-05T01:58:31.400Z,88916.00
2023-05-05T01:59:31.501Z,88918.00
2023-05-05T02:00:33.030Z,88918.00
2023-05-05T02:01:31.595Z,88918.00
2023-05-05T02:02:31.614Z,88918.00
2023-05-05T02:03:31.510Z,88918.00
2023-05-05T02:04:31.583Z,88918.00
2023-05-05T02:05:31.527Z,88920.00
2023-05-05T02:06:31.781Z,88918.00
2023-05-05T02:07:31.574Z,88918.00
2023-05-05T02:08:31.599Z,88918.00
2023-05-05T02:09:31.664Z,88912.00
2023-05-05T02:10:31.676Z,88912.00
2023-05-05T02:11:32.523Z,88914.00
2023-05-05T02:12:31.888Z,88914.00
2023-05-05T02:13:31.826Z,88914.00
2023-05-05T02:14:31.908Z,88918.00
2023-05-05T02:15:31.969Z,88918.00
2023-05-05T02:16:33.015Z,88910.00
2023-05-05T02:17:32.163Z,88914.00
2023-05-05T02:18:32.139Z,88914.00
2023-05-05T02:19:32.301Z,88918.00
2023-05-05T02:20:33.096Z,88920.00
2023-05-05T02:21:33.017Z,88916.00
2023-05-05T02:22:32.421Z,88916.00
2023-05-05T02:23:34.457Z,88920.00
2023-05-05T02:24:33.532Z,88920.00
2023-05-05T02:25:32.586Z,88918.00
2023-05-05T02:26:32.709Z,88920.00
2023-05-05T02:27:33.070Z,88918.00
2023-05-05T02:28:33.531Z,88920.00
2023-05-05T02:29:32.856Z,88916.00
2023-05-05T02:30:33.600Z,88920.00
2023-05-05T02:31:33.012Z,88916.00
2023-05-05T02:32:33.040Z,88918.00
2023-05-05T02:33:33.278Z,88918.00
2023-05-05T02:34:33.103Z,88920.00
2023-05-05T02:35:33.194Z,88920.00
2023-05-05T02:36:33.256Z,88918.00
2023-05-05T02:37:33.192Z,88918.00
2023-05-05T02:38:33.228Z,88920.00
2023-05-05T02:39:33.283Z,88918.00
2023-05-05T02:40:33.308Z,88920.00
2023-05-05T02:41:33.432Z,88920.00
2023-05-05T02:42:33.611Z,88918.00
2023-05-05T02:43:33.523Z,88920.00
2023-05-05T02:44:33.521Z,88918.00
2023-05-05T02:45:35.522Z,88920.00
2023-05-05T02:46:33.650Z,88918.00
2023-05-05T02:47:33.645Z,88920.00
2023-05-05T02:48:34.039Z,88920.00
2023-05-05T02:49:40.745Z,88920.00
2023-05-05T02:50:33.618Z,88922.00
2023-05-05T02:51:33.782Z,88924.00
2023-05-05T02:52:33.676Z,88924.00
2023-05-05T02:53:33.686Z,88922.00
2023-05-05T02:54:33.769Z,88924.00
2023-05-05T02:55:33.781Z,88922.00
2023-05-05T02:56:33.806Z,88920.00
2023-05-05T02:57:33.825Z,88922.00
2023-05-05T02:58:33.857Z,88926.00
2023-05-05T02:59:33.830Z,88924.00
2023-05-05T03:00:33.892Z,88924.00
2023-05-05T03:01:33.956Z,88922.00
2023-05-05T03:02:34.016Z,88924.00
2023-05-05T03:03:34.093Z,88922.00
2023-05-05T03:04:34.017Z,88924.00
2023-05-05T03:05:34.109Z,88924.00
2023-05-05T03:06:34.114Z,88922.00
2023-05-05T03:07:34.116Z,88922.00
2023-05-05T03:08:35.012Z,88924.00
2023-05-05T03:09:34.255Z,88924.00
2023-05-05T03:10:34.215Z,88924.00
2023-05-05T03:11:34.228Z,88924.00
2023-05-05T03:12:34.312Z,88922.00
2023-05-05T03:13:34.565Z,88922.00
2023-05-05T03:14:34.342Z,88924.00
2023-05-05T03:15:34.364Z,88924.00
2023-05-05T03:16:34.478Z,88922.00
2023-05-05T03:17:34.441Z,88916.00
2023-05-05T03:18:34.513Z,88920.00
2023-05-05T03:19:35.024Z,88920.00
2023-05-05T03:20:34.573Z,88916.00
2023-05-05T03:21:34.622Z,88916.00
2023-05-05T03:22:34.776Z,88912.00
2023-05-05T03:23:34.865Z,88914.00
2023-05-05T03:24:34.938Z,88914.00
2023-05-05T03:25:34.930Z,88914.00
2023-05-05T03:26:36.536Z,88912.00
2023-05-05T03:27:35.036Z,88912.00
2023-05-05T03:28:35.076Z,88909.00
2023-05-05T03:29:35.206Z,88909.00
2023-05-05T03:30:36.136Z,88910.00
2023-05-05T03:31:37.082Z,88910.00
2023-05-05T03:32:36.046Z,88907.00
2023-05-05T03:33:35.389Z,88909.00
2023-05-05T03:34:36.685Z,88910.00
2023-05-05T03:35:35.593Z,88909.00
2023-05-05T03:36:35.664Z,88907.00
2023-05-05T03:37:35.736Z,88909.00
2023-05-05T03:38:35.838Z,88907.00
2023-05-05T03:39:35.920Z,88909.00
2023-05-05T03:40:43.692Z,88910.00
2023-05-05T03:41:37.021Z,88912.00
2023-05-05T03:42:37.207Z,88914.00
2023-05-05T03:43:36.078Z,88914.00
2023-05-05T03:44:36.117Z,88916.00
2023-05-05T03:45:36.206Z,88914.00
2023-05-05T03:46:36.241Z,88910.00
2023-05-05T03:47:36.351Z,88912.00
2023-05-05T03:48:36.299Z,88910.00
2023-05-05T03:49:36.345Z,88912.00
2023-05-05T03:50:36.402Z,88910.00
2023-05-05T03:51:37.186Z,88910.00
2023-05-05T03:52:36.547Z,88910.00
2023-05-05T03:53:36.514Z,88910.00
2023-05-05T03:54:36.549Z,88910.00
2023-05-05T03:55:37.635Z,88909.00
2023-05-05T03:56:36.637Z,88909.00
2023-05-05T03:57:36.721Z,88909.00
2023-05-05T03:58:36.785Z,88907.00
2023-05-05T03:59:36.817Z,88909.00
2023-05-05T04:00:36.883Z,88905.00
2023-05-05T04:01:36.935Z,88909.00
2023-05-05T04:02:37.008Z,88907.00
2023-05-05T04:03:37.058Z,88903.00
2023-05-05T04:04:37.099Z,88907.00
2023-05-05T04:05:37.014Z,88907.00
2023-05-05T04:06:37.009Z,88905.00
2023-05-05T04:07:37.039Z,88903.00
2023-05-05T04:08:37.159Z,88905.00
2023-05-05T04:09:37.114Z,88905.00
2023-05-05T04:10:37.128Z,88905.00
2023-05-05T04:11:37.276Z,88909.00
2023-05-05T04:12:37.251Z,88905.00
2023-05-05T04:13:37.233Z,88907.00
2023-05-05T04:14:37.258Z,88909.00
2023-05-05T04:15:37.349Z,88910.00
2023-05-05T04:16:37.518Z,88910.00
2023-05-05T04:17:37.507Z,88910.00
2023-05-05T04:18:37.545Z,88912.00
2023-05-05T04:19:38.535Z,88912.00
2023-05-05T04:20:37.682Z,88910.00
2023-05-05T04:21:37.699Z,88912.00
2023-05-05T04:22:37.730Z,88912.00
2023-05-05T04:23:37.799Z,88912.00
2023-05-05T04:24:37.830Z,88912.00
2023-05-05T04:25:37.870Z,88914.00
2023-05-05T04:26:37.904Z,88914.00
2023-05-05T04:27:38.084Z,88916.00
2023-05-05T04:28:38.030Z,88916.00
2023-05-05T04:29:38.103Z,88916.00
2023-05-05T04:30:38.214Z,88916.00
2023-05-05T04:31:38.370Z,88918.00
2023-05-05T04:32:38.385Z,88920.00
2023-05-05T04:33:38.369Z,88918.00
2023-05-05T04:34:38.391Z,88918.00
2023-05-05T04:35:38.396Z,88920.00
2023-05-05T04:36:38.492Z,88918.00
2023-05-05T04:37:38.502Z,88916.00
2023-05-05T04:38:38.559Z,88914.00
2023-05-05T04:39:38.614Z,88914.00
2023-05-05T04:40:38.685Z,88914.00
2023-05-05T04:41:38.811Z,88916.00
2023-05-05T04:42:38.823Z,88914.00
2023-05-05T04:43:38.876Z,88914.00
2023-05-05T04:44:38.929Z,88910.00
2023-05-05T04:45:38.889Z,88909.00
2023-05-05T04:46:38.968Z,88910.00
2023-05-05T04:47:39.077Z,88910.00
2023-05-05T04:48:39.571Z,88907.00
2023-05-05T04:49:39.133Z,88909.00
2023-05-05T04:50:39.208Z,88914.00
2023-05-05T04:51:39.280Z,88910.00
2023-05-05T04:52:39.355Z,88909.00
2023-05-05T04:53:39.358Z,88909.00
2023-05-05T04:54:39.423Z,88907.00
2023-05-05T04:55:39.422Z,88907.00
2023-05-05T04:56:39.458Z,88909.00
2023-05-05T04:57:39.497Z,88909.00
2023-05-05T04:58:39.584Z,88910.00
2023-05-05T04:59:39.703Z,88912.00
2023-05-05T05:00:39.669Z,88914.00
2023-05-05T05:01:39.744Z,88912.00
2023-05-05T05:02:39.850Z,88916.00
2023-05-05T05:03:39.846Z,88914.00
2023-05-05T05:04:39.842Z,88914.00
2023-05-05T05:05:39.879Z,88920.00
2023-05-05T05:06:39.840Z,88918.00
2023-05-05T05:07:39.921Z,88920.00
2023-05-05T05:08:39.880Z,88920.00
2023-05-05T05:09:39.847Z,88922.00
2023-05-05T05:10:39.862Z,88920.00
2023-05-05T05:11:39.826Z,88922.00
2023-05-05T05:12:39.820Z,88922.00
2023-05-05T05:13:39.824Z,88918.00
2023-05-05T05:14:39.843Z,88920.00
2023-05-05T05:15:39.790Z,88918.00
2023-05-05T05:16:39.838Z,88914.00
2023-05-05T05:17:39.835Z,88916.00
2023-05-05T05:18:39.794Z,88916.00
2023-05-05T05:19:39.799Z,88916.00
2023-05-05T05:20:39.797Z,88916.00
2023-05-05T05:21:39.777Z,88916.00
2023-05-05T05:22:39.854Z,88914.00
2023-05-05T05:23:40.066Z,88914.00
2023-05-05T05:24:39.816Z,88916.00
2023-05-05T05:25:39.735Z,88916.00
2023-05-05T05:26:39.807Z,88912.00
2023-05-05T05:27:39.809Z,88914.00
2023-05-05T05:28:39.848Z,88914.00
2023-05-05T05:29:40.089Z,88914.00
2023-05-05T05:30:40.698Z,88914.00
2023-05-05T05:31:39.932Z,88914.00
2023-05-05T05:32:40.087Z,88914.00
2023-05-05T05:33:39.938Z,88910.00
2023-05-05T05:34:39.906Z,88914.00
2023-05-05T05:35:40.544Z,88910.00
2023-05-05T05:36:39.957Z,88910.00
2023-05-05T05:37:40.012Z,88912.00
2023-05-05T05:38:40.031Z,88910.00
2023-05-05T05:39:41.926Z,88912.00
2023-05-05T05:40:39.964Z,88910.00
2023-05-05T05:41:40.550Z,88912.00
2023-05-05T05:42:39.948Z,88910.00
2023-05-05T05:43:39.901Z,88912.00
2023-05-05T05:44:39.933Z,88912.00
2023-05-05T05:45:39.884Z,88912.00
2023-05-05T05:46:40.006Z,88910.00
2023-05-05T05:47:39.880Z,88909.00
2023-05-05T05:48:39.911Z,88912.00
2023-05-05T05:49:39.816Z,88914.00
2023-05-05T05:50:39.812Z,88916.00
2023-05-05T05:51:39.814Z,88916.00
2023-05-05T05:52:39.835Z,88918.00
2023-05-05T05:53:39.794Z,88918.00
2023-05-05T05:54:39.863Z,88916.00
2023-05-05T05:55:39.786Z,88916.00
2023-05-05T05:56:39.796Z,88916.00
2023-05-05T05:57:39.841Z,88914.00
2023-05-05T05:58:41.978Z,88914.00
2023-05-05T05:59:39.872Z,88916.00
2023-05-05T06:00:39.931Z,88916.00
2023-05-05T06:01:40.002Z,88916.00
2023-05-05T06:02:40.072Z,88912.00
2023-05-05T06:03:40.003Z,88910.00
2023-05-05T06:04:39.960Z,88912.00
2023-05-05T06:05:39.986Z,88907.00
2023-05-05T06:06:39.935Z,88910.00
2023-05-05T06:07:39.897Z,88909.00
2023-05-05T06:08:39.870Z,88907.00
2023-05-05T06:09:39.858Z,88905.00
2023-05-05T06:10:39.858Z,88907.00
2023-05-05T06:11:39.889Z,88905.00
2023-05-05T06:12:39.803Z,88905.00
2023-05-05T06:13:39.819Z,88903.00
2023-05-05T06:14:39.814Z,88905.00
2023-05-05T06:15:39.889Z,88901.00
2023-05-05T06:16:39.864Z,88901.00
2023-05-05T06:17:39.951Z,88901.00
2023-05-05T06:18:40.060Z,88903.00
2023-05-05T06:19:39.977Z,88901.00
2023-05-05T06:20:40.004Z,88901.00
2023-05-05T06:21:40.001Z,88899.00
2023-05-05T06:22:39.972Z,88901.00
2023-05-05T06:23:40.069Z,88901.00
2023-05-05T06:24:39.980Z,88899.00
2023-05-05T06:25:39.935Z,88901.00
2023-05-05T06:26:40.021Z,88897.00
2023-05-05T06:27:39.913Z,88895.00
2023-05-05T06:28:39.877Z,88897.00
2023-05-05T06:29:39.863Z,88899.00
2023-05-05T06:30:39.831Z,88899.00
2023-05-05T06:31:39.826Z,88897.00
2023-05-05T06:32:39.774Z,88897.00
2023-05-05T06:33:39.730Z,88893.00
2023-05-05T06:34:39.660Z,88895.00
2023-05-05T06:35:40.585Z,88895.00
2023-05-05T06:36:39.654Z,88895.00
2023-05-05T06:37:40.574Z,88891.00
2023-05-05T06:38:39.627Z,88889.00
2023-05-05T06:39:39.641Z,88889.00
2023-05-05T06:40:40.085Z,88891.00
2023-05-05T06:41:39.625Z,88891.00
2023-05-05T06:42:39.611Z,88891.00
2023-05-05T06:43:39.577Z,88889.00
2023-05-05T06:44:39.589Z,88891.00
2023-05-05T06:45:39.488Z,88889.00
2023-05-05T06:46:40.221Z,88889.00
2023-05-05T06:47:40.609Z,88887.00
2023-05-05T06:48:39.443Z,88885.00
2023-05-05T06:49:39.421Z,88887.00
2023-05-05T06:50:39.336Z,88883.00
2023-05-05T06:51:41.056Z,88883.00
2023-05-05T06:52:39.265Z,88883.00
2023-05-05T06:53:39.306Z,88883.00
2023-05-05T06:54:39.117Z,88881.00
2023-05-05T06:55:39.067Z,88881.00
2023-05-05T06:56:39.038Z,88881.00
2023-05-05T06:57:38.947Z,88883.00
2023-05-05T06:58:38.981Z,88883.00
2023-05-05T06:59:38.881Z,88883.00
2023-05-05T07:00:38.865Z,88885.00
2023-05-05T07:01:38.832Z,88883.00
2023-05-05T07:02:38.982Z,88881.00
2023-05-05T07:03:38.721Z,88879.00
2023-05-05T07:04:38.623Z,88879.00
2023-05-05T07:05:38.597Z,88881.00
2023-05-05T07:06:38.573Z,88881.00
2023-05-05T07:07:38.492Z,88879.00
2023-05-05T07:08:38.477Z,88877.00
2023-05-05T07:09:38.461Z,88881.00
2023-05-05T07:10:38.372Z,88879.00
2023-05-05T07:11:38.515Z,88879.00
2023-05-05T07:12:38.261Z,88879.00
2023-05-05T07:13:38.193Z,88881.00
2023-05-05T07:14:38.164Z,88879.00
2023-05-05T07:15:38.082Z,88881.00
2023-05-05T07:16:38.124Z,88879.00
2023-05-05T07:17:37.985Z,88881.00
2023-05-05T07:18:38.169Z,88879.00
2023-05-05T07:19:37.826Z,88877.00
2023-05-05T07:20:37.773Z,88877.00
2023-05-05T07:21:37.723Z,88873.00
2023-05-05T07:22:37.803Z,88873.00
2023-05-05T07:23:37.551Z,88875.00
2023-05-05T07:24:37.510Z,88869.00
2023-05-05T07:25:37.478Z,88869.00
2023-05-05T07:26:38.131Z,88865.00
2023-05-05T07:27:37.312Z,88865.00
2023-05-05T07:28:37.308Z,88863.00
2023-05-05T07:29:37.261Z,88863.00
2023-05-05T07:30:37.162Z,88862.00
2023-05-05T07:31:37.139Z,88867.00
2023-05-05T07:32:37.157Z,88863.00
2023-05-05T07:33:37.126Z,88865.00
2023-05-05T07:34:37.465Z,88862.00
2023-05-05T07:35:37.628Z,88863.00
2023-05-05T07:36:36.986Z,88862.00
2023-05-05T07:37:36.997Z,88860.00
2023-05-05T07:38:37.114Z,88863.00
2023-05-05T07:39:37.495Z,88862.00
2023-05-05T07:40:36.731Z,88862.00
2023-05-05T07:41:36.771Z,88860.00
2023-05-05T07:42:36.525Z,88862.00
2023-05-05T07:43:36.460Z,88858.00
2023-05-05T07:44:36.474Z,88860.00
2023-05-05T07:45:36.320Z,88856.00
2023-05-05T07:46:37.139Z,88850.00
2023-05-05T07:47:36.091Z,88850.00
2023-05-05T07:48:38.583Z,88848.00
2023-05-05T07:49:36.134Z,88848.00
2023-05-05T07:50:36.621Z,88846.00
2023-05-05T07:51:35.964Z,88840.00
2023-05-05T07:52:44.963Z,88840.00
2023-05-05T07:53:36.796Z,88836.00
2023-05-05T07:54:35.719Z,88838.00
2023-05-05T07:55:35.595Z,88836.00
2023-05-05T07:56:35.570Z,88838.00
2023-05-05T07:57:36.449Z,88834.00
2023-05-05T07:58:35.541Z,88836.00
2023-05-05T07:59:35.165Z,88834.00
2023-05-05T08:00:35.059Z,88830.00
2023-05-05T08:01:34.933Z,88830.00
2023-05-05T08:02:34.957Z,88828.00
2023-05-05T08:03:34.983Z,88828.00
2023-05-05T08:04:35.758Z,88828.00
2023-05-05T08:05:34.552Z,88822.00
2023-05-05T08:06:34.466Z,88822.00
2023-05-05T08:07:34.324Z,88826.00
2023-05-05T08:08:34.191Z,88824.00
2023-05-05T08:09:34.054Z,88820.00
2023-05-05T08:10:33.982Z,88820.00
2023-05-05T08:11:33.897Z,88815.00
2023-05-05T08:12:33.830Z,88818.00
2023-05-05T08:13:34.899Z,88820.00
2023-05-05T08:14:34.157Z,88818.00
2023-05-05T08:15:33.400Z,88816.00
2023-05-05T08:16:33.328Z,88818.00
2023-05-05T08:17:33.222Z,88816.00
2023-05-05T08:18:33.062Z,88813.00
2023-05-05T08:19:32.959Z,88815.00
2023-05-05T08:20:32.830Z,88811.00
2023-05-05T08:21:33.608Z,88811.00
2023-05-05T08:22:33.107Z,88811.00
2023-05-05T08:23:32.677Z,88809.00
2023-05-05T08:24:32.515Z,88813.00
2023-05-05T08:25:32.269Z,88813.00
2023-05-05T08:26:32.176Z,88811.00
2023-05-05T08:27:32.242Z,88809.00
2023-05-05T08:28:32.179Z,88813.00
2023-05-05T08:29:32.163Z,88813.00
2023-05-05T08:30:32.008Z,88809.00
2023-05-05T08:31:31.829Z,88805.00
2023-05-05T08:32:31.687Z,88807.00
2023-05-05T08:33:31.602Z,88807.00
2023-05-05T08:34:31.558Z,88805.00
2023-05-05T08:35:31.400Z,88807.00
2023-05-05T08:36:31.293Z,88801.00
2023-05-05T08:37:31.168Z,88803.00
2023-05-05T08:38:31.064Z,88799.00
2023-05-05T08:39:31.207Z,88803.00
2023-05-05T08:40:30.893Z,88801.00
2023-05-05T08:41:30.700Z,88801.00
2023-05-05T08:42:37.772Z,88797.00
2023-05-05T08:43:31.471Z,88801.00
2023-05-05T08:44:30.386Z,88799.00
2023-05-05T08:45:30.646Z,88797.00
2023-05-05T08:46:30.137Z,88791.00
2023-05-05T08:47:30.020Z,88795.00
2023-05-05T08:48:29.855Z,88793.00
2023-05-05T08:49:30.116Z,88789.00
2023-05-05T08:50:29.670Z,88791.00
2023-05-05T08:51:29.472Z,88793.00
2023-05-05T08:52:29.377Z,88791.00
2023-05-05T08:53:29.206Z,88787.00
2023-05-05T08:54:29.168Z,88787.00
2023-05-05T08:55:28.969Z,88789.00
2023-05-05T08:56:28.839Z,88787.00
2023-05-05T08:57:28.676Z,88789.00
2023-05-05T08:58:29.364Z,88787.00
2023-05-05T08:59:28.710Z,88789.00
2023-05-05T09:00:28.469Z,88781.00
2023-05-05T09:01:29.226Z,88787.00
2023-05-05T09:02:28.128Z,88781.00
2023-05-05T09:03:27.980Z,88781.00
2023-05-05T09:04:27.889Z,88781.00
2023-05-05T09:05:27.696Z,88787.00
2023-05-05T09:06:27.613Z,88783.00
2023-05-05T09:07:27.453Z,88779.00
2023-05-05T09:08:27.323Z,88781.00
2023-05-05T09:09:27.319Z,88779.00
2023-05-05T09:10:27.787Z,88779.00
2023-05-05T09:11:26.978Z,88775.00
2023-05-05T09:12:27.016Z,88775.00
2023-05-05T09:13:27.644Z,88775.00
2023-05-05T09:14:26.746Z,88773.00
2023-05-05T09:15:26.772Z,88769.00
2023-05-05T09:16:26.441Z,88767.00
2023-05-05T09:17:26.383Z,88767.00
2023-05-05T09:18:26.166Z,88763.00
2023-05-05T09:19:26.046Z,88763.00
2023-05-05T09:20:25.935Z,88763.00
2023-05-05T09:21:25.853Z,88763.00
2023-05-05T09:22:25.725Z,88763.00
2023-05-05T09:23:25.702Z,88761.00
2023-05-05T09:24:25.682Z,88763.00
2023-05-05T09:25:25.403Z,88763.00
2023-05-05T09:26:25.244Z,88763.00
2023-05-05T09:27:25.138Z,88765.00
2023-05-05T09:28:25.061Z,88767.00
2023-05-05T09:29:25.374Z,88763.00
2023-05-05T09:30:24.875Z,88758.00
2023-05-05T09:31:24.828Z,88761.00
2023-05-05T09:32:24.822Z,88765.00
2023-05-05T09:33:24.661Z,88767.00
2023-05-05T09:34:24.528Z,88763.00
2023-05-05T09:35:24.566Z,88761.00
2023-05-05T09:36:24.448Z,88761.00
2023-05-05T09:37:24.333Z,88760.00
2023-05-05T09:38:26.355Z,88756.00
2023-05-05T09:39:24.364Z,88758.00
2023-05-05T09:40:24.041Z,88758.00
2023-05-05T09:41:23.858Z,88760.00
2023-05-05T09:42:23.923Z,88758.00
2023-05-05T09:43:24.134Z,88758.00
2023-05-05T09:44:23.584Z,88758.00
2023-05-05T09:45:24.159Z,88760.00
2023-05-05T09:46:23.616Z,88758.00
2023-05-05T09:47:29.593Z,88756.00
2023-05-05T09:48:24.463Z,88758.00
2023-05-05T09:49:23.329Z,88758.00
2023-05-05T09:50:23.093Z,88758.00
2023-05-05T09:51:22.998Z,88758.00
2023-05-05T09:52:22.910Z,88758.00
2023-05-05T09:53:22.749Z,88756.00
2023-05-05T09:54:22.655Z,88760.00
2023-05-05T09:55:23.128Z,88758.00
2023-05-05T09:56:22.395Z,88760.00
2023-05-05T09:57:25.177Z,88761.00
2023-05-05T09:58:22.287Z,88758.00
2023-05-05T09:59:22.190Z,88760.00
2023-05-05T10:00:21.976Z,88758.00
2023-05-05T10:01:21.846Z,88747.00
2023-05-05T10:02:21.682Z,88758.00
2023-05-05T10:03:22.160Z,88754.00
2023-05-05T10:04:21.498Z,88760.00
2023-05-05T10:05:21.460Z,88756.00
2023-05-05T10:06:21.228Z,88756.00
2023-05-05T10:07:21.114Z,88754.00
2023-05-05T10:08:21.085Z,88745.00
2023-05-05T10:09:22.048Z,88747.00
2023-05-05T10:10:20.738Z,88745.00
2023-05-05T10:11:20.604Z,88741.00
2023-05-05T10:12:20.497Z,88747.00
2023-05-05T10:13:20.472Z,88743.00
2023-05-05T10:14:20.227Z,88745.00
2023-05-05T10:15:20.433Z,88741.00
2023-05-05T10:16:20.249Z,88741.00
2023-05-05T10:17:20.738Z,88739.00
2023-05-05T10:18:19.785Z,88737.00
2023-05-05T10:19:20.176Z,88737.00
2023-05-05T10:20:19.493Z,88733.00
2023-05-05T10:21:20.236Z,88727.00
2023-05-05T10:22:19.449Z,88727.00
2023-05-05T10:23:19.043Z,88727.00
2023-05-05T10:24:19.108Z,88727.00
2023-05-05T10:25:18.799Z,88723.00
2023-05-05T10:26:18.624Z,88725.00
2023-05-05T10:27:18.665Z,88727.00
2023-05-05T10:28:18.370Z,88723.00
2023-05-05T10:29:18.242Z,88725.00
2023-05-05T10:30:18.133Z,88727.00
2023-05-05T10:31:25.748Z,88721.00
2023-05-05T10:32:47.037Z,88719.00
2023-05-05T10:33:30.373Z,88717.00
2023-05-05T10:34:18.595Z,88719.00
2023-05-05T10:35:17.436Z,88717.00
2023-05-05T10:36:17.255Z,88717.00
2023-05-05T10:37:17.716Z,88711.00
2023-05-05T10:38:16.955Z,88709.00
2023-05-05T10:39:17.764Z,88707.00
2023-05-05T10:40:17.218Z,88707.00
2023-05-05T10:41:16.526Z,88705.00
2023-05-05T10:42:19.153Z,88701.00
2023-05-05T10:43:16.289Z,88699.00
2023-05-05T10:44:16.194Z,88697.00
2023-05-05T10:45:16.294Z,88697.00
2023-05-05T10:46:16.956Z,88693.00
2023-05-05T10:47:16.165Z,88697.00
2023-05-05T10:48:15.610Z,88695.00
2023-05-05T10:49:16.458Z,88693.00
2023-05-05T10:50:15.340Z,88688.00
2023-05-05T10:51:21.145Z,88684.00
2023-05-05T10:52:15.832Z,88692.00
2023-05-05T10:53:14.733Z,88697.00
2023-05-05T10:54:14.618Z,88690.00
2023-05-05T10:55:14.389Z,88688.00
2023-05-05T10:56:15.178Z,88688.00
2023-05-05T10:57:14.113Z,88682.00
2023-05-05T10:58:13.933Z,88682.00
2023-05-05T10:59:14.661Z,88680.00
2023-05-05T11:00:15.104Z,88676.00
2023-05-05T11:01:13.589Z,88674.00
2023-05-05T11:02:14.156Z,88676.00
2023-05-05T11:03:13.366Z,88676.00
2023-05-05T11:04:13.155Z,88672.00
2023-05-05T11:05:12.981Z,88668.00
2023-05-05T11:06:12.834Z,88660.00
2023-05-05T11:07:15.000Z,88666.00
2023-05-05T11:08:12.837Z,88660.00
2023-05-05T11:09:12.566Z,88662.00
2023-05-05T11:10:12.332Z,88660.00
2023-05-05T11:11:12.141Z,88658.00
2023-05-05T11:12:11.997Z,88656.00
2023-05-05T11:13:11.872Z,88656.00
2023-05-05T11:14:12.164Z,88658.00
2023-05-05T11:15:11.530Z,88654.00
2023-05-05T11:16:11.408Z,88654.00
2023-05-05T11:17:11.249Z,88650.00
2023-05-05T11:18:11.143Z,88652.00
2023-05-05T11:19:11.706Z,88652.00
2023-05-05T11:20:10.939Z,88646.00
2023-05-05T11:21:10.683Z,88646.00
2023-05-05T11:22:10.502Z,88645.00
2023-05-05T11:23:10.370Z,88645.00
2023-05-05T11:24:10.193Z,88643.00
2023-05-05T11:25:10.060Z,88641.00
2023-05-05T11:26:09.891Z,88641.00
2023-05-05T11:27:09.714Z,88639.00
2023-05-05T11:28:09.561Z,88639.00
2023-05-05T11:29:09.448Z,88635.00
2023-05-05T11:30:10.726Z,88639.00
2023-05-05T11:31:09.105Z,88637.00
2023-05-05T11:32:09.037Z,88639.00
2023-05-05T11:33:08.795Z,88637.00
2023-05-05T11:34:08.604Z,88635.00
2023-05-05T11:35:08.714Z,88633.00
2023-05-05T11:36:08.297Z,88635.00
2023-05-05T11:37:08.157Z,88629.00
2023-05-05T11:38:08.010Z,88629.00
2023-05-05T11:39:07.868Z,88629.00
2023-05-05T11:40:07.905Z,88629.00
2023-05-05T11:41:07.613Z,88627.00
2023-05-05T11:42:10.737Z,88627.00
2023-05-05T11:43:07.249Z,88623.00
2023-05-05T11:44:07.027Z,88623.00